UTDD

Dushanbe Airport

Dushanbe, Tajikistan
METAR UTDD 201730Z 35006G11MPS 310V020 9999 FEW066CB BKN110 23/06 Q1019 R09/D TEMPO VRB08G13MPS RMK QFE696/0928
Observed Flight Rules
Sep-20 @ 17:30 UTC (an hour ago) Visual Flight Rules
Wind Visibility Clouds
350° at 12 knots
 Gusting to 21 knots
10,000+ meters
  • Few at 6,600' AGL
  • Broken at 11,000' AGL
Temperatures Readings
Current 23°C / 73°F
Dewpoint 6°C / 43°F
Humidity 33%
Altimeter 30.09" Hg
Pressure 1019 hPa
Elevation 803
METAR UTDD 201730Z 35006G11MPS 310V020 9999 FEW066CB BKN110 23/06 Q1019 R09/D TEMPO VRB08G13MPS RMK QFE696/0928
Observed Flight Rules
Sep-20 @ 17:30 UTC
(an hour ago)
VFR
Wind Visibility
350° at 12 knots
 Gusting to 21 knots
10,000+ meters
Clouds
  • Few at 6,600' AGL
  • Broken at 11,000' AGL
Temperature Dewpoint
23°C / 73°F 6°C / 43°F
Humidity Altimeter Pressure
33% 30.09" Hg 1019 hPa